sensor_id;sensor_type;location;lat;lon;timestamp;temperature;humidity
20856;DHT22;63058;49.424;8.420;2024-01-16T00:01:18;2.00;91.50
20856;DHT22;63058;49.424;8.420;2024-01-16T00:03:44;2.10;91.80
20856;DHT22;63058;49.424;8.420;2024-01-16T00:06:10;2.10;91.50
20856;DHT22;63058;49.424;8.420;2024-01-16T00:08:35;2.10;91.50
20856;DHT22;63058;49.424;8.420;2024-01-16T00:11:04;2.10;91.40
20856;DHT22;63058;49.424;8.420;2024-01-16T00:13:30;2.20;91.40
20856;DHT22;63058;49.424;8.420;2024-01-16T00:15:55;2.20;91.40
20856;DHT22;63058;49.424;8.420;2024-01-16T00:18:23;2.20;91.40
20856;DHT22;63058;49.424;8.420;2024-01-16T00:20:49;2.20;91.50
20856;DHT22;63058;49.424;8.420;2024-01-16T00:23:14;2.20;91.50
20856;DHT22;63058;49.424;8.420;2024-01-16T00:25:40;2.20;91.50
20856;DHT22;63058;49.424;8.420;2024-01-16T00:28:06;2.20;91.40
20856;DHT22;63058;49.424;8.420;2024-01-16T00:30:32;2.20;91.40
20856;DHT22;63058;49.424;8.420;2024-01-16T00:32:58;2.20;91.40
20856;DHT22;63058;49.424;8.420;2024-01-16T00:35:24;2.20;91.40
20856;DHT22;63058;49.424;8.420;2024-01-16T00:37:50;2.20;91.50
20856;DHT22;63058;49.424;8.420;2024-01-16T00:40:15;2.20;91.50
20856;DHT22;63058;49.424;8.420;2024-01-16T00:42:41;2.20;91.60
20856;DHT22;63058;49.424;8.420;2024-01-16T00:45:07;2.20;91.60
20856;DHT22;63058;49.424;8.420;2024-01-16T00:47:32;2.20;91.60
20856;DHT22;63058;49.424;8.420;2024-01-16T00:49:58;2.20;91.60
20856;DHT22;63058;49.424;8.420;2024-01-16T00:52:26;2.20;91.90
20856;DHT22;63058;49.424;8.420;2024-01-16T00:54:51;2.20;91.50
20856;DHT22;63058;49.424;8.420;2024-01-16T00:57:17;2.20;91.50
20856;DHT22;63058;49.424;8.420;2024-01-16T00:59:45;2.20;91.40
20856;DHT22;63058;49.424;8.420;2024-01-16T01:02:11;2.20;91.20
20856;DHT22;63058;49.424;8.420;2024-01-16T01:04:37;2.10;91.20
20856;DHT22;63058;49.424;8.420;2024-01-16T01:07:03;2.00;91.10
20856;DHT22;63058;49.424;8.420;2024-01-16T01:09:28;2.00;91.00
20856;DHT22;63058;49.424;8.420;2024-01-16T01:11:54;1.90;91.00
20856;DHT22;63058;49.424;8.420;2024-01-16T01:14:20;1.90;91.10
20856;DHT22;63058;49.424;8.420;2024-01-16T01:16:45;1.80;91.10
20856;DHT22;63058;49.424;8.420;2024-01-16T01:19:11;1.70;91.10
20856;DHT22;63058;49.424;8.420;2024-01-16T01:21:38;1.70;91.20
20856;DHT22;63058;49.424;8.420;2024-01-16T01:24:03;1.60;91.20
20856;DHT22;63058;49.424;8.420;2024-01-16T01:26:29;1.60;91.20
20856;DHT22;63058;49.424;8.420;2024-01-16T01:28:54;1.50;91.20
20856;DHT22;63058;49.424;8.420;2024-01-16T01:31:20;1.50;91.30
20856;DHT22;63058;49.424;8.420;2024-01-16T01:33:46;1.50;91.40
20856;DHT22;63058;49.424;8.420;2024-01-16T01:36:11;1.50;91.40
20856;DHT22;63058;49.424;8.420;2024-01-16T01:38:37;1.40;91.40
20856;DHT22;63058;49.424;8.420;2024-01-16T01:41:02;1.40;91.40
20856;DHT22;63058;49.424;8.420;2024-01-16T01:43:28;1.40;91.90
20856;DHT22;63058;49.424;8.420;2024-01-16T01:46:08;1.30;91.50
20856;DHT22;63058;49.424;8.420;2024-01-16T01:48:34;1.30;91.60
20856;DHT22;63058;49.424;8.420;2024-01-16T01:51:01;1.30;91.60
20856;DHT22;63058;49.424;8.420;2024-01-16T01:53:28;1.30;91.70
20856;DHT22;63058;49.424;8.420;2024-01-16T01:55:54;1.30;91.70
20856;DHT22;63058;49.424;8.420;2024-01-16T01:58:20;1.30;91.70
20856;DHT22;63058;49.424;8.420;2024-01-16T02:00:46;1.20;91.70
20856;DHT22;63058;49.424;8.420;2024-01-16T02:03:12;1.20;91.70
20856;DHT22;63058;49.424;8.420;2024-01-16T02:05:39;1.20;91.80
20856;DHT22;63058;49.424;8.420;2024-01-16T02:08:05;1.20;91.70
20856;DHT22;63058;49.424;8.420;2024-01-16T02:10:31;1.20;91.80
20856;DHT22;63058;49.424;8.420;2024-01-16T02:12:57;1.20;92.00
20856;DHT22;63058;49.424;8.420;2024-01-16T02:15:24;1.20;92.20
20856;DHT22;63058;49.424;8.420;2024-01-16T02:17:49;1.20;92.20
20856;DHT22;63058;49.424;8.420;2024-01-16T02:20:16;1.20;92.20
20856;DHT22;63058;49.424;8.420;2024-01-16T02:22:45;1.20;92.30
20856;DHT22;63058;49.424;8.420;2024-01-16T02:25:13;1.30;92.30
20856;DHT22;63058;49.424;8.420;2024-01-16T02:27:38;1.30;92.20
20856;DHT22;63058;49.424;8.420;2024-01-16T02:30:04;1.30;92.30
20856;DHT22;63058;49.424;8.420;2024-01-16T02:32:31;1.30;92.30
20856;DHT22;63058;49.424;8.420;2024-01-16T02:34:57;1.30;92.40
20856;DHT22;63058;49.424;8.420;2024-01-16T02:37:22;1.40;92.40
20856;DHT22;63058;49.424;8.420;2024-01-16T02:39:48;1.40;92.50
20856;DHT22;63058;49.424;8.420;2024-01-16T02:42:14;1.60;92.60
20856;DHT22;63058;49.424;8.420;2024-01-16T02:44:40;1.50;92.50
20856;DHT22;63058;49.424;8.420;2024-01-16T02:47:05;1.50;92.60
20856;DHT22;63058;49.424;8.420;2024-01-16T02:49:32;1.50;92.50
20856;DHT22;63058;49.424;8.420;2024-01-16T02:51:58;1.50;92.50
20856;DHT22;63058;49.424;8.420;2024-01-16T02:54:24;1.60;92.50
20856;DHT22;63058;49.424;8.420;2024-01-16T02:56:49;1.60;92.50
20856;DHT22;63058;49.424;8.420;2024-01-16T02:59:15;1.60;92.50
20856;DHT22;63058;49.424;8.420;2024-01-16T03:01:41;1.70;92.50
20856;DHT22;63058;49.424;8.420;2024-01-16T03:04:06;1.70;92.50
20856;DHT22;63058;49.424;8.420;2024-01-16T03:06:32;1.70;92.40
20856;DHT22;63058;49.424;8.420;2024-01-16T03:08:57;1.70;92.40
20856;DHT22;63058;49.424;8.420;2024-01-16T03:11:23;1.70;92.40
20856;DHT22;63058;49.424;8.420;2024-01-16T03:13:48;1.80;92.40
20856;DHT22;63058;49.424;8.420;2024-01-16T03:16:17;1.70;92.30
20856;DHT22;63058;49.424;8.420;2024-01-16T03:18:43;1.70;92.30
20856;DHT22;63058;49.424;8.420;2024-01-16T03:21:10;1.70;92.20
20856;DHT22;63058;49.424;8.420;2024-01-16T03:23:35;1.70;92.20
20856;DHT22;63058;49.424;8.420;2024-01-16T03:26:01;1.70;92.10
20856;DHT22;63058;49.424;8.420;2024-01-16T03:28:26;1.60;92.10
20856;DHT22;63058;49.424;8.420;2024-01-16T03:30:52;1.60;92.10
20856;DHT22;63058;49.424;8.420;2024-01-16T03:33:17;1.60;92.10
20856;DHT22;63058;49.424;8.420;2024-01-16T03:35:43;1.50;92.10
20856;DHT22;63058;49.424;8.420;2024-01-16T03:38:34;1.50;92.20
20856;DHT22;63058;49.424;8.420;2024-01-16T03:41:01;1.50;92.20
20856;DHT22;63058;49.424;8.420;2024-01-16T03:43:26;1.50;92.20
20856;DHT22;63058;49.424;8.420;2024-01-16T03:45:52;1.50;92.30
20856;DHT22;63058;49.424;8.420;2024-01-16T03:48:17;1.40;92.20
20856;DHT22;63058;49.424;8.420;2024-01-16T03:50:43;1.40;92.30
20856;DHT22;63058;49.424;8.420;2024-01-16T03:53:10;1.50;92.30
20856;DHT22;63058;49.424;8.420;2024-01-16T03:55:36;1.40;92.20
20856;DHT22;63058;49.424;8.420;2024-01-16T03:58:01;1.40;92.20
20856;DHT22;63058;49.424;8.420;2024-01-16T04:00:27;1.40;92.10
20856;DHT22;63058;49.424;8.420;2024-01-16T04:02:52;1.30;92.10
20856;DHT22;63058;49.424;8.420;2024-01-16T04:05:18;1.30;92.10
20856;DHT22;63058;49.424;8.420;2024-01-16T04:07:43;1.30;92.10
20856;DHT22;63058;49.424;8.420;2024-01-16T04:10:09;1.30;92.00
20856;DHT22;63058;49.424;8.420;2024-01-16T04:12:34;1.30;92.00
20856;DHT22;63058;49.424;8.420;2024-01-16T04:15:00;1.30;92.00
20856;DHT22;63058;49.424;8.420;2024-01-16T04:17:25;1.30;91.90
20856;DHT22;63058;49.424;8.420;2024-01-16T04:19:51;1.30;91.90
20856;DHT22;63058;49.424;8.420;2024-01-16T04:22:16;1.30;91.80
20856;DHT22;63058;49.424;8.420;2024-01-16T04:24:42;1.20;91.70
20856;DHT22;63058;49.424;8.420;2024-01-16T04:27:08;1.20;91.80
20856;DHT22;63058;49.424;8.420;2024-01-16T04:29:36;1.10;91.80
20856;DHT22;63058;49.424;8.420;2024-01-16T04:32:02;1.10;91.90
20856;DHT22;63058;49.424;8.420;2024-01-16T04:34:28;1.10;91.90
20856;DHT22;63058;49.424;8.420;2024-01-16T04:36:54;1.20;92.10
20856;DHT22;63058;49.424;8.420;2024-01-16T04:39:19;1.10;92.10
20856;DHT22;63058;49.424;8.420;2024-01-16T04:41:50;1.10;92.20
20856;DHT22;63058;49.424;8.420;2024-01-16T04:44:16;1.10;92.30
20856;DHT22;63058;49.424;8.420;2024-01-16T04:46:41;1.10;92.30
20856;DHT22;63058;49.424;8.420;2024-01-16T04:49:07;1.10;92.30
20856;DHT22;63058;49.424;8.420;2024-01-16T04:51:32;1.20;92.30
20856;DHT22;63058;49.424;8.420;2024-01-16T04:53:58;1.10;92.30
20856;DHT22;63058;49.424;8.420;2024-01-16T04:56:24;1.10;92.30
20856;DHT22;63058;49.424;8.420;2024-01-16T04:58:49;1.10;92.30
20856;DHT22;63058;49.424;8.420;2024-01-16T05:01:15;1.10;92.30
20856;DHT22;63058;49.424;8.420;2024-01-16T05:03:40;1.00;92.30
20856;DHT22;63058;49.424;8.420;2024-01-16T05:06:12;1.00;92.30
20856;DHT22;63058;49.424;8.420;2024-01-16T05:08:39;1.00;92.30
20856;DHT22;63058;49.424;8.420;2024-01-16T05:11:04;1.00;92.40
20856;DHT22;63058;49.424;8.420;2024-01-16T05:13:30;1.00;92.40
20856;DHT22;63058;49.424;8.420;2024-01-16T05:15:55;1.00;92.40
20856;DHT22;63058;49.424;8.420;2024-01-16T05:18:21;1.00;92.40
20856;DHT22;63058;49.424;8.420;2024-01-16T05:20:46;1.00;92.40
20856;DHT22;63058;49.424;8.420;2024-01-16T05:23:12;1.00;92.40
20856;DHT22;63058;49.424;8.420;2024-01-16T05:25:38;1.00;92.40
20856;DHT22;63058;49.424;8.420;2024-01-16T05:28:03;1.00;92.40
20856;DHT22;63058;49.424;8.420;2024-01-16T05:30:29;1.00;92.30
20856;DHT22;63058;49.424;8.420;2024-01-16T05:32:55;1.00;92.30
20856;DHT22;63058;49.424;8.420;2024-01-16T05:35:20;1.00;92.30
20856;DHT22;63058;49.424;8.420;2024-01-16T05:37:46;0.90;92.30
20856;DHT22;63058;49.424;8.420;2024-01-16T05:40:11;0.90;92.30
20856;DHT22;63058;49.424;8.420;2024-01-16T05:42:38;0.90;92.30
20856;DHT22;63058;49.424;8.420;2024-01-16T05:45:03;0.80;92.30
20856;DHT22;63058;49.424;8.420;2024-01-16T05:47:29;0.80;92.60
20856;DHT22;63058;49.424;8.420;2024-01-16T05:49:56;0.80;92.30
20856;DHT22;63058;49.424;8.420;2024-01-16T05:52:22;0.80;92.30
20856;DHT22;63058;49.424;8.420;2024-01-16T05:54:48;0.80;92.30
20856;DHT22;63058;49.424;8.420;2024-01-16T05:57:13;0.70;92.30
20856;DHT22;63058;49.424;8.420;2024-01-16T05:59:39;0.70;92.30
20856;DHT22;63058;49.424;8.420;2024-01-16T06:02:05;0.70;92.30
20856;DHT22;63058;49.424;8.420;2024-01-16T06:04:31;0.70;92.40
20856;DHT22;63058;49.424;8.420;2024-01-16T06:06:56;0.60;92.40
20856;DHT22;63058;49.424;8.420;2024-01-16T06:09:22;0.60;92.40
20856;DHT22;63058;49.424;8.420;2024-01-16T06:11:47;0.50;92.40
20856;DHT22;63058;49.424;8.420;2024-01-16T06:14:13;0.50;92.50
20856;DHT22;63058;49.424;8.420;2024-01-16T06:16:39;0.50;92.60
20856;DHT22;63058;49.424;8.420;2024-01-16T06:19:04;0.50;92.70
20856;DHT22;63058;49.424;8.420;2024-01-16T06:21:30;0.50;92.80
20856;DHT22;63058;49.424;8.420;2024-01-16T06:23:56;0.60;92.90
20856;DHT22;63058;49.424;8.420;2024-01-16T06:26:22;0.60;92.90
20856;DHT22;63058;49.424;8.420;2024-01-16T06:28:47;0.70;92.90
20856;DHT22;63058;49.424;8.420;2024-01-16T06:31:13;0.70;92.90
20856;DHT22;63058;49.424;8.420;2024-01-16T06:33:39;0.90;92.90
20856;DHT22;63058;49.424;8.420;2024-01-16T06:36:05;0.80;92.90
20856;DHT22;63058;49.424;8.420;2024-01-16T06:38:31;0.80;92.90
20856;DHT22;63058;49.424;8.420;2024-01-16T06:40:57;0.90;92.90
20856;DHT22;63058;49.424;8.420;2024-01-16T06:43:24;1.00;93.00
20856;DHT22;63058;49.424;8.420;2024-01-16T06:45:50;0.90;93.00
20856;DHT22;63058;49.424;8.420;2024-01-16T06:48:15;0.90;93.10
20856;DHT22;63058;49.424;8.420;2024-01-16T06:50:41;1.00;93.10
20856;DHT22;63058;49.424;8.420;2024-01-16T06:53:07;1.10;93.20
20856;DHT22;63058;49.424;8.420;2024-01-16T06:55:32;1.10;93.10
20856;DHT22;63058;49.424;8.420;2024-01-16T06:57:58;1.20;93.10
20856;DHT22;63058;49.424;8.420;2024-01-16T07:00:23;1.20;93.10
20856;DHT22;63058;49.424;8.420;2024-01-16T07:02:52;1.20;93.00
20856;DHT22;63058;49.424;8.420;2024-01-16T07:05:17;1.30;92.90
20856;DHT22;63058;49.424;8.420;2024-01-16T07:07:43;1.30;92.90
20856;DHT22;63058;49.424;8.420;2024-01-16T07:10:08;1.30;92.80
20856;DHT22;63058;49.424;8.420;2024-01-16T07:12:39;1.30;92.70
20856;DHT22;63058;49.424;8.420;2024-01-16T07:15:05;1.30;92.70
20856;DHT22;63058;49.424;8.420;2024-01-16T07:17:31;1.30;92.70
20856;DHT22;63058;49.424;8.420;2024-01-16T07:19:57;1.30;92.70
20856;DHT22;63058;49.424;8.420;2024-01-16T07:22:23;1.30;92.70
20856;DHT22;63058;49.424;8.420;2024-01-16T07:24:49;1.30;92.70
20856;DHT22;63058;49.424;8.420;2024-01-16T07:27:15;1.30;93.10
20856;DHT22;63058;49.424;8.420;2024-01-16T07:29:40;1.30;92.70
20856;DHT22;63058;49.424;8.420;2024-01-16T07:32:07;1.30;92.70
20856;DHT22;63058;49.424;8.420;2024-01-16T07:34:32;1.30;92.70
20856;DHT22;63058;49.424;8.420;2024-01-16T07:36:58;1.30;92.80
20856;DHT22;63058;49.424;8.420;2024-01-16T07:39:24;1.30;92.80
20856;DHT22;63058;49.424;8.420;2024-01-16T07:41:49;1.40;92.80
20856;DHT22;63058;49.424;8.420;2024-01-16T07:44:15;1.40;92.80
20856;DHT22;63058;49.424;8.420;2024-01-16T07:46:40;1.40;92.80
20856;DHT22;63058;49.424;8.420;2024-01-16T07:49:06;1.40;92.80
20856;DHT22;63058;49.424;8.420;2024-01-16T07:51:31;1.40;92.80
20856;DHT22;63058;49.424;8.420;2024-01-16T07:54:08;1.40;92.80
20856;DHT22;63058;49.424;8.420;2024-01-16T07:56:34;1.40;92.70
20856;DHT22;63058;49.424;8.420;2024-01-16T07:59:00;1.40;92.80
20856;DHT22;63058;49.424;8.420;2024-01-16T08:01:29;1.50;92.90
20856;DHT22;63058;49.424;8.420;2024-01-16T08:03:55;1.50;92.90
20856;DHT22;63058;49.424;8.420;2024-01-16T08:06:21;1.50;92.90
20856;DHT22;63058;49.424;8.420;2024-01-16T08:08:47;1.50;92.90
20856;DHT22;63058;49.424;8.420;2024-01-16T08:11:14;1.50;92.90
20856;DHT22;63058;49.424;8.420;2024-01-16T08:13:39;1.60;92.90
20856;DHT22;63058;49.424;8.420;2024-01-16T08:16:05;1.60;92.90
20856;DHT22;63058;49.424;8.420;2024-01-16T08:18:31;1.70;93.00
20856;DHT22;63058;49.424;8.420;2024-01-16T08:20:57;1.70;93.30
20856;DHT22;63058;49.424;8.420;2024-01-16T08:23:23;1.70;93.00
20856;DHT22;63058;49.424;8.420;2024-01-16T08:25:48;1.80;92.90
20856;DHT22;63058;49.424;8.420;2024-01-16T08:28:14;1.80;92.90
20856;DHT22;63058;49.424;8.420;2024-01-16T08:30:40;1.90;93.00
20856;DHT22;63058;49.424;8.420;2024-01-16T08:33:06;1.90;92.90
20856;DHT22;63058;49.424;8.420;2024-01-16T08:35:32;1.90;93.00
20856;DHT22;63058;49.424;8.420;2024-01-16T08:37:58;2.00;93.00
20856;DHT22;63058;49.424;8.420;2024-01-16T08:40:24;2.00;92.90
20856;DHT22;63058;49.424;8.420;2024-01-16T08:42:49;2.10;92.90
20856;DHT22;63058;49.424;8.420;2024-01-16T08:45:23;2.10;92.90
20856;DHT22;63058;49.424;8.420;2024-01-16T08:47:49;2.10;92.90
20856;DHT22;63058;49.424;8.420;2024-01-16T08:50:15;2.10;92.90
20856;DHT22;63058;49.424;8.420;2024-01-16T08:52:41;2.10;92.80
20856;DHT22;63058;49.424;8.420;2024-01-16T08:55:08;2.10;92.80
20856;DHT22;63058;49.424;8.420;2024-01-16T08:57:40;2.10;92.90
20856;DHT22;63058;49.424;8.420;2024-01-16T09:00:06;2.20;92.90
20856;DHT22;63058;49.424;8.420;2024-01-16T09:02:34;2.20;92.90
20856;DHT22;63058;49.424;8.420;2024-01-16T09:05:00;2.30;93.00
20856;DHT22;63058;49.424;8.420;2024-01-16T09:07:26;2.30;92.90
20856;DHT22;63058;49.424;8.420;2024-01-16T09:09:53;2.30;92.90
20856;DHT22;63058;49.424;8.420;2024-01-16T09:12:19;2.40;92.90
20856;DHT22;63058;49.424;8.420;2024-01-16T09:14:44;2.40;93.00
20856;DHT22;63058;49.424;8.420;2024-01-16T09:17:10;2.40;93.00
20856;DHT22;63058;49.424;8.420;2024-01-16T09:19:36;2.50;93.00
20856;DHT22;63058;49.424;8.420;2024-01-16T09:22:01;2.50;93.00
20856;DHT22;63058;49.424;8.420;2024-01-16T09:24:28;2.60;93.10
20856;DHT22;63058;49.424;8.420;2024-01-16T09:26:54;2.60;93.20
20856;DHT22;63058;49.424;8.420;2024-01-16T09:29:19;2.60;93.20
20856;DHT22;63058;49.424;8.420;2024-01-16T09:31:46;2.70;93.20
20856;DHT22;63058;49.424;8.420;2024-01-16T09:34:12;2.90;93.30
20856;DHT22;63058;49.424;8.420;2024-01-16T09:36:39;2.80;93.30
20856;DHT22;63058;49.424;8.420;2024-01-16T09:39:06;2.80;93.30
20856;DHT22;63058;49.424;8.420;2024-01-16T09:41:36;2.90;93.20
20856;DHT22;63058;49.424;8.420;2024-01-16T09:44:03;3.00;93.30
20856;DHT22;63058;49.424;8.420;2024-01-16T09:46:31;3.00;93.30
20856;DHT22;63058;49.424;8.420;2024-01-16T09:48:59;3.00;93.10
20856;DHT22;63058;49.424;8.420;2024-01-16T09:51:26;3.10;93.10
20856;DHT22;63058;49.424;8.420;2024-01-16T09:53:52;3.20;93.10
20856;DHT22;63058;49.424;8.420;2024-01-16T09:56:21;3.20;93.00
20856;DHT22;63058;49.424;8.420;2024-01-16T09:58:49;3.30;92.90
20856;DHT22;63058;49.424;8.420;2024-01-16T10:01:16;3.30;92.90
20856;DHT22;63058;49.424;8.420;2024-01-16T10:03:44;3.30;92.80
20856;DHT22;63058;49.424;8.420;2024-01-16T10:06:11;3.40;92.80
20856;DHT22;63058;49.424;8.420;2024-01-16T10:08:37;3.40;92.90
20856;DHT22;63058;49.424;8.420;2024-01-16T10:11:03;3.50;92.90
20856;DHT22;63058;49.424;8.420;2024-01-16T10:13:29;3.50;92.90
20856;DHT22;63058;49.424;8.420;2024-01-16T10:15:55;3.50;92.80
20856;DHT22;63058;49.424;8.420;2024-01-16T10:18:28;3.50;92.80
20856;DHT22;63058;49.424;8.420;2024-01-16T10:20:57;3.50;92.60
20856;DHT22;63058;49.424;8.420;2024-01-16T10:26:09;3.60;92.90
20856;DHT22;63058;49.424;8.420;2024-01-16T10:28:40;3.70;92.50
20856;DHT22;63058;49.424;8.420;2024-01-16T10:31:08;3.70;92.80
20856;DHT22;63058;49.424;8.420;2024-01-16T10:33:33;3.70;92.90
20856;DHT22;63058;49.424;8.420;2024-01-16T10:38:39;3.80;92.50
20856;DHT22;63058;49.424;8.420;2024-01-16T10:41:15;3.90;92.80
20856;DHT22;63058;49.424;8.420;2024-01-16T10:43:42;3.90;92.60
20856;DHT22;63058;49.424;8.420;2024-01-16T10:46:15;3.90;92.80
20856;DHT22;63058;49.424;8.420;2024-01-16T10:48:43;4.00;92.80
20856;DHT22;63058;49.424;8.420;2024-01-16T10:51:14;4.00;92.70
20856;DHT22;63058;49.424;8.420;2024-01-16T10:53:43;4.10;92.50
20856;DHT22;63058;49.424;8.420;2024-01-16T10:56:13;4.10;92.60
20856;DHT22;63058;49.424;8.420;2024-01-16T10:58:41;4.10;92.60
20856;DHT22;63058;49.424;8.420;2024-01-16T11:01:13;4.20;93.10
20856;DHT22;63058;49.424;8.420;2024-01-16T11:03:50;4.30;92.70
20856;DHT22;63058;49.424;8.420;2024-01-16T11:06:17;4.40;92.40
20856;DHT22;63058;49.424;8.420;2024-01-16T11:08:46;4.50;92.80
20856;DHT22;63058;49.424;8.420;2024-01-16T11:11:13;4.60;92.70
20856;DHT22;63058;49.424;8.420;2024-01-16T11:13:38;4.70;93.10
20856;DHT22;63058;49.424;8.420;2024-01-16T11:16:05;4.80;92.80
20856;DHT22;63058;49.424;8.420;2024-01-16T11:18:33;4.80;92.80
20856;DHT22;63058;49.424;8.420;2024-01-16T11:21:00;4.90;92.80
20856;DHT22;63058;49.424;8.420;2024-01-16T11:23:26;5.00;92.70
20856;DHT22;63058;49.424;8.420;2024-01-16T11:25:52;5.10;92.70
20856;DHT22;63058;49.424;8.420;2024-01-16T11:28:18;5.20;92.60
20856;DHT22;63058;49.424;8.420;2024-01-16T11:30:45;5.30;92.60
20856;DHT22;63058;49.424;8.420;2024-01-16T11:35:58;5.50;91.80
20856;DHT22;63058;49.424;8.420;2024-01-16T11:38:24;5.60;92.70
20856;DHT22;63058;49.424;8.420;2024-01-16T11:40:53;5.70;92.80
20856;DHT22;63058;49.424;8.420;2024-01-16T11:43:35;5.80;92.80
20856;DHT22;63058;49.424;8.420;2024-01-16T11:46:05;6.00;92.10
20856;DHT22;63058;49.424;8.420;2024-01-16T11:48:32;6.20;92.50
20856;DHT22;63058;49.424;8.420;2024-01-16T11:50:58;6.30;92.60
20856;DHT22;63058;49.424;8.420;2024-01-16T12:01:50;6.60;90.90
20856;DHT22;63058;49.424;8.420;2024-01-16T12:04:18;6.70;91.50
20856;DHT22;63058;49.424;8.420;2024-01-16T12:06:57;6.80;92.30
20856;DHT22;63058;49.424;8.420;2024-01-16T12:09:26;7.00;92.40
20856;DHT22;63058;49.424;8.420;2024-01-16T12:12:00;7.40;93.80
20856;DHT22;63058;49.424;8.420;2024-01-16T12:14:27;7.90;94.00
20856;DHT22;63058;49.424;8.420;2024-01-16T12:16:53;8.50;95.10
20856;DHT22;63058;49.424;8.420;2024-01-16T12:19:18;9.00;95.10
20856;DHT22;63058;49.424;8.420;2024-01-16T12:21:45;9.70;95.60
20856;DHT22;63058;49.424;8.420;2024-01-16T12:24:11;10.20;94.90
20856;DHT22;63058;49.424;8.420;2024-01-16T12:26:37;10.80;94.60
20856;DHT22;63058;49.424;8.420;2024-01-16T12:29:03;11.20;93.00
20856;DHT22;63058;49.424;8.420;2024-01-16T12:31:29;11.50;92.50
20856;DHT22;63058;49.424;8.420;2024-01-16T12:34:08;11.80;92.40
20856;DHT22;63058;49.424;8.420;2024-01-16T12:36:34;12.00;90.70
20856;DHT22;63058;49.424;8.420;2024-01-16T12:39:00;12.40;92.40
20856;DHT22;63058;49.424;8.420;2024-01-16T12:41:40;12.70;92.60
20856;DHT22;63058;49.424;8.420;2024-01-16T12:44:09;13.10;91.40
20856;DHT22;63058;49.424;8.420;2024-01-16T12:46:35;13.60;91.20
20856;DHT22;63058;49.424;8.420;2024-01-16T12:49:04;13.70;91.20
20856;DHT22;63058;49.424;8.420;2024-01-16T12:51:32;14.00;89.90
20856;DHT22;63058;49.424;8.420;2024-01-16T12:54:13;14.10;90.20
20856;DHT22;63058;49.424;8.420;2024-01-16T12:56:39;14.20;87.30
20856;DHT22;63058;49.424;8.420;2024-01-16T12:59:09;14.40;90.40
20856;DHT22;63058;49.424;8.420;2024-01-16T13:01:40;14.60;88.10
20856;DHT22;63058;49.424;8.420;2024-01-16T13:04:07;14.80;87.50
20856;DHT22;63058;49.424;8.420;2024-01-16T13:06:33;15.10;89.70
20856;DHT22;63058;49.424;8.420;2024-01-16T13:09:09;15.30;88.30
20856;DHT22;63058;49.424;8.420;2024-01-16T13:11:51;15.50;84.20
20856;DHT22;63058;49.424;8.420;2024-01-16T13:14:18;15.70;80.00
20856;DHT22;63058;49.424;8.420;2024-01-16T13:16:46;15.80;83.80
20856;DHT22;63058;49.424;8.420;2024-01-16T13:19:11;15.90;84.00
20856;DHT22;63058;49.424;8.420;2024-01-16T13:21:37;15.90;83.20
20856;DHT22;63058;49.424;8.420;2024-01-16T13:24:03;15.90;81.30
20856;DHT22;63058;49.424;8.420;2024-01-16T13:26:29;15.70;79.60
20856;DHT22;63058;49.424;8.420;2024-01-16T13:28:54;15.50;77.90
20856;DHT22;63058;49.424;8.420;2024-01-16T13:31:20;15.20;76.60
20856;DHT22;63058;49.424;8.420;2024-01-16T13:33:45;14.80;77.00
20856;DHT22;63058;49.424;8.420;2024-01-16T13:36:11;14.50;78.90
20856;DHT22;63058;49.424;8.420;2024-01-16T13:38:37;14.40;81.80
20856;DHT22;63058;49.424;8.420;2024-01-16T13:41:02;14.30;83.00
20856;DHT22;63058;49.424;8.420;2024-01-16T13:43:28;14.50;83.40
20856;DHT22;63058;49.424;8.420;2024-01-16T13:45:54;14.60;82.40
20856;DHT22;63058;49.424;8.420;2024-01-16T13:48:20;14.70;81.70
20856;DHT22;63058;49.424;8.420;2024-01-16T13:50:46;14.80;81.30
20856;DHT22;63058;49.424;8.420;2024-01-16T13:53:12;14.80;80.30
20856;DHT22;63058;49.424;8.420;2024-01-16T13:55:41;14.80;80.50
20856;DHT22;63058;49.424;8.420;2024-01-16T13:58:07;14.80;78.90
20856;DHT22;63058;49.424;8.420;2024-01-16T14:00:33;14.60;78.90
20856;DHT22;63058;49.424;8.420;2024-01-16T14:02:59;14.60;80.50
20856;DHT22;63058;49.424;8.420;2024-01-16T14:05:24;14.50;78.50
20856;DHT22;63058;49.424;8.420;2024-01-16T14:07:52;14.40;78.60
20856;DHT22;63058;49.424;8.420;2024-01-16T14:10:19;14.20;75.90
20856;DHT22;63058;49.424;8.420;2024-01-16T14:12:47;13.80;74.60
20856;DHT22;63058;49.424;8.420;2024-01-16T14:15:15;13.40;74.90
20856;DHT22;63058;49.424;8.420;2024-01-16T14:17:58;13.10;75.00
20856;DHT22;63058;49.424;8.420;2024-01-16T14:20:25;12.60;75.30
20856;DHT22;63058;49.424;8.420;2024-01-16T14:22:53;12.30;74.80
20856;DHT22;63058;49.424;8.420;2024-01-16T14:25:20;11.90;75.40
20856;DHT22;63058;49.424;8.420;2024-01-16T14:27:48;11.50;75.80
20856;DHT22;63058;49.424;8.420;2024-01-16T14:30:21;11.20;76.00
20856;DHT22;63058;49.424;8.420;2024-01-16T14:32:46;10.80;76.40
20856;DHT22;63058;49.424;8.420;2024-01-16T14:35:13;10.60;76.90
20856;DHT22;63058;49.424;8.420;2024-01-16T14:37:40;10.30;76.80
20856;DHT22;63058;49.424;8.420;2024-01-16T14:40:06;10.00;76.90
20856;DHT22;63058;49.424;8.420;2024-01-16T14:42:39;9.80;76.70
20856;DHT22;63058;49.424;8.420;2024-01-16T14:45:05;9.50;76.00
20856;DHT22;63058;49.424;8.420;2024-01-16T14:47:31;9.30;75.80
20856;DHT22;63058;49.424;8.420;2024-01-16T14:49:57;9.00;75.70
20856;DHT22;63058;49.424;8.420;2024-01-16T14:52:23;8.70;75.70
20856;DHT22;63058;49.424;8.420;2024-01-16T14:54:49;8.50;75.50
20856;DHT22;63058;49.424;8.420;2024-01-16T14:57:15;8.20;75.00
20856;DHT22;63058;49.424;8.420;2024-01-16T14:59:41;8.00;75.20
20856;DHT22;63058;49.424;8.420;2024-01-16T15:02:07;7.70;75.10
20856;DHT22;63058;49.424;8.420;2024-01-16T15:04:42;7.40;74.90
20856;DHT22;63058;49.424;8.420;2024-01-16T15:07:08;7.30;74.70
20856;DHT22;63058;49.424;8.420;2024-01-16T15:09:35;7.10;75.50
20856;DHT22;63058;49.424;8.420;2024-01-16T15:12:09;6.90;75.50
20856;DHT22;63058;49.424;8.420;2024-01-16T15:14:35;6.70;75.50
20856;DHT22;63058;49.424;8.420;2024-01-16T15:17:01;6.50;75.70
20856;DHT22;63058;49.424;8.420;2024-01-16T15:19:28;6.30;75.70
20856;DHT22;63058;49.424;8.420;2024-01-16T15:21:55;6.20;75.80
20856;DHT22;63058;49.424;8.420;2024-01-16T15:24:21;6.10;76.10
20856;DHT22;63058;49.424;8.420;2024-01-16T15:26:56;5.90;76.00
20856;DHT22;63058;49.424;8.420;2024-01-16T15:29:25;5.80;76.20
20856;DHT22;63058;49.424;8.420;2024-01-16T15:31:54;5.70;75.80
20856;DHT22;63058;49.424;8.420;2024-01-16T15:34:21;5.60;76.10
20856;DHT22;63058;49.424;8.420;2024-01-16T15:36:47;5.50;76.20
20856;DHT22;63058;49.424;8.420;2024-01-16T15:39:14;5.40;76.30
20856;DHT22;63058;49.424;8.420;2024-01-16T15:41:43;5.30;76.10
20856;DHT22;63058;49.424;8.420;2024-01-16T15:44:10;5.20;76.10
20856;DHT22;63058;49.424;8.420;2024-01-16T15:46:58;5.20;76.20
20856;DHT22;63058;49.424;8.420;2024-01-16T15:49:25;5.00;75.70
20856;DHT22;63058;49.424;8.420;2024-01-16T15:51:50;4.90;76.50
20856;DHT22;63058;49.424;8.420;2024-01-16T15:54:16;4.80;76.50
20856;DHT22;63058;49.424;8.420;2024-01-16T15:56:42;4.70;76.60
20856;DHT22;63058;49.424;8.420;2024-01-16T15:59:07;4.70;76.70